Time;durP1;ratioP1;P1;durP2;ratioP2;P2;SDS_P1;SDS_P2;PMS_P1;PMS_P2;Temp;Humidity;BMP_temperature;BMP_pressure;BME280_temperature;BME280_humidity;BME280_pressure;Samples;Min_cycle;Max_cycle;Signal;HPM_P1;HPM_P2
2023/06/08 00:02:07;;;;;;;;;;;12.60;99.90;;;;;;5156506;27;19923;-62
2023/06/08 00:04:32;;;;;;;;;;;12.40;99.90;;;;;;5156195;27;19923;-62
2023/06/08 00:07:08;;;;;;;;;;;12.50;99.90;;;;;;5137848;27;20055;-62
2023/06/08 00:09:35;;;;;;;;;;;11.90;99.90;;;;;;5156158;27;19926;-62
2023/06/08 00:12:01;;;;;;;;;;;12.30;99.90;;;;;;5155953;27;19919;-61
2023/06/08 00:14:27;;;;;;;;;;;12.10;99.90;;;;;;5121108;27;19926;-61
2023/06/08 00:16:52;;;;;;;;;;;12.40;99.90;;;;;;5156336;27;19952;-62
2023/06/08 00:19:18;;;;;;;;;;;12.00;99.90;;;;;;5156118;27;19923;-62
2023/06/08 00:21:48;;;;;;;;;;;11.80;99.90;;;;;;5155929;27;19951;-62
2023/06/08 00:24:15;;;;;;;;;;;12.20;99.90;;;;;;5156081;27;19929;-62
2023/06/08 00:26:40;;;;;;;;;;;12.30;99.90;;;;;;5155545;27;20297;-62
2023/06/08 00:29:06;;;;;;;;;;;12.10;99.90;;;;;;5155908;27;19930;-62
2023/06/08 00:31:32;;;;;;;;;;;12.40;99.90;;;;;;5155784;27;19965;-61
2023/06/08 00:33:57;;;;;;;;;;;11.80;99.90;;;;;;5155730;27;19923;-63
2023/06/08 00:36:23;;;;;;;;;;;11.80;99.90;;;;;;5137107;27;19962;-62
2023/06/08 00:38:48;;;;;;;;;;;12.40;99.90;;;;;;5155770;27;20499;-62
2023/06/08 00:41:14;;;;;;;;;;;11.80;99.90;;;;;;5155392;27;19930;-62
2023/06/08 00:43:42;;;;;;;;;;;12.40;99.90;;;;;;5155568;27;19923;-61
2023/06/08 00:46:08;;;;;;;;;;;11.80;99.90;;;;;;5155416;27;20294;-62
2023/06/08 00:48:34;;;;;;;;;;;12.20;99.90;;;;;;5155677;27;20374;-62
2023/06/08 00:51:01;;;;;;;;;;;12.10;99.90;;;;;;5155393;27;20009;-62
2023/06/08 00:53:27;;;;;;;;;;;11.90;99.90;;;;;;5155193;27;19968;-62
2023/06/08 00:55:53;;;;;;;;;;;11.80;99.90;;;;;;5155141;27;19969;-62
2023/06/08 00:58:19;;;;;;;;;;;12.50;99.90;;;;;;5136935;27;19998;-62
2023/06/08 01:00:46;;;;;;;;;;;11.80;99.90;;;;;;5155477;27;19926;-63
2023/06/08 01:03:12;;;;;;;;;;;12.50;99.90;;;;;;5136972;27;19919;-61
2023/06/08 01:05:38;;;;;;;;;;;12.10;99.90;;;;;;5155186;27;19974;-61
2023/06/08 01:08:08;;;;;;;;;;;11.90;99.90;;;;;;5155210;27;20328;-61
2023/06/08 01:10:42;;;;;;;;;;;11.90;99.90;;;;;;5155050;27;19922;-62
2023/06/08 01:13:21;;;;;;;;;;;12.00;99.90;;;;;;5155229;27;19919;-62
2023/06/08 01:15:51;;;;;;;;;;;11.90;99.90;;;;;;5155192;27;19923;-62
2023/06/08 01:18:18;;;;;;;;;;;11.70;99.90;;;;;;5154954;27;19979;-62
2023/06/08 01:21:07;;;;;;;;;;;11.90;99.90;;;;;;5154794;27;19927;-62
2023/06/08 01:23:34;;;;;;;;;;;11.90;99.90;;;;;;5155011;27;20384;-62
2023/06/08 01:26:00;;;;;;;;;;;12.00;99.90;;;;;;5154682;27;19926;-62
2023/06/08 01:28:28;;;;;;;;;;;11.80;99.90;;;;;;5154911;27;19926;-62
2023/06/08 01:30:54;;;;;;;;;;;12.20;99.90;;;;;;5153747;27;19946;-62
2023/06/08 01:33:23;;;;;;;;;;;11.50;99.90;;;;;;5154503;27;20360;-62
2023/06/08 01:36:07;;;;;;;;;;;11.80;99.90;;;;;;5154764;27;20005;-62
2023/06/08 01:38:32;;;;;;;;;;;12.50;99.90;;;;;;5154625;27;20272;-62
2023/06/08 01:41:00;;;;;;;;;;;11.90;99.90;;;;;;5154558;27;19919;-61
2023/06/08 01:43:26;;;;;;;;;;;12.30;99.90;;;;;;5154573;27;19987;-62
2023/06/08 01:45:55;;;;;;;;;;;12.00;99.90;;;;;;5154311;27;20366;-62
2023/06/08 01:48:22;;;;;;;;;;;12.20;99.90;;;;;;5154541;27;19988;-62
2023/06/08 01:50:49;;;;;;;;;;;11.70;99.90;;;;;;5154533;27;19959;-62
2023/06/08 01:53:16;;;;;;;;;;;11.70;99.90;;;;;;5154416;27;19919;-62
2023/06/08 01:55:41;;;;;;;;;;;12.20;99.90;;;;;;5154327;27;19966;-62
2023/06/08 01:58:07;;;;;;;;;;;12.30;99.90;;;;;;5135747;27;20373;-62
2023/06/08 02:00:32;;;;;;;;;;;12.00;99.90;;;;;;5154136;27;19971;-61
2023/06/08 02:02:58;;;;;;;;;;;12.20;99.90;;;;;;5154578;27;19982;-62
2023/06/08 02:05:24;;;;;;;;;;;11.90;99.90;;;;;;5153960;27;20579;-62
2023/06/08 02:07:49;;;;;;;;;;;12.20;99.90;;;;;;5154247;27;19930;-62
2023/06/08 02:10:16;;;;;;;;;;;12.30;99.90;;;;;;5154278;27;19919;-62
2023/06/08 02:12:42;;;;;;;;;;;12.50;99.90;;;;;;5154163;27;20389;-62
2023/06/08 02:15:07;;;;;;;;;;;12.40;99.90;;;;;;5153986;27;19919;-62
2023/06/08 02:17:35;;;;;;;;;;;12.50;99.90;;;;;;5154182;27;19919;-62
2023/06/08 02:20:05;;;;;;;;;;;12.10;99.90;;;;;;5154089;27;19923;-62
2023/06/08 02:22:31;;;;;;;;;;;11.90;99.90;;;;;;5154417;27;20291;-62
2023/06/08 02:24:57;;;;;;;;;;;11.80;99.90;;;;;;5153875;27;20021;-61
2023/06/08 02:27:22;;;;;;;;;;;12.30;99.90;;;;;;5154068;27;20274;-62
2023/06/08 02:29:48;;;;;;;;;;;12.00;99.90;;;;;;5153785;27;19966;-62
2023/06/08 02:32:14;;;;;;;;;;;12.10;99.90;;;;;;5153949;27;19919;-62
2023/06/08 02:34:40;;;;;;;;;;;12.20;99.90;;;;;;5153895;27;19923;-62
2023/06/08 02:37:06;;;;;;;;;;;12.10;99.90;;;;;;5153893;27;20275;-62
2023/06/08 02:39:31;;;;;;;;;;;12.10;99.90;;;;;;5153669;27;19972;-62
2023/06/08 02:41:57;;;;;;;;;;;12.20;99.90;;;;;;5137284;27;19968;-62
2023/06/08 02:44:23;;;;;;;;;;;12.00;99.90;;;;;;5157909;27;19919;-62
2023/06/08 02:46:48;;;;;;;;;;;11.80;99.90;;;;;;5158006;27;19923;-62
2023/06/08 02:49:14;;;;;;;;;;;12.00;99.90;;;;;;5157999;27;19925;-62
2023/06/08 02:51:40;;;;;;;;;;;12.10;99.90;;;;;;5157959;27;19926;-62
2023/06/08 02:54:05;;;;;;;;;;;12.10;99.90;;;;;;5157848;27;20271;-62
2023/06/08 02:56:31;;;;;;;;;;;12.60;99.90;;;;;;5157816;27;19966;-62
2023/06/08 02:58:56;;;;;;;;;;;12.40;99.90;;;;;;5157691;27;20384;-62
2023/06/08 03:01:23;;;;;;;;;;;12.20;99.90;;;;;;5157893;27;19946;-62
2023/06/08 03:03:51;;;;;;;;;;;12.20;99.90;;;;;;5157795;27;20392;-62
2023/06/08 03:06:17;;;;;;;;;;;12.00;99.90;;;;;;5157612;27;20067;-62
2023/06/08 03:08:44;;;;;;;;;;;11.70;99.90;;;;;;5157673;27;19934;-62
2023/06/08 03:11:10;;;;;;;;;;;12.10;99.90;;;;;;5157380;27;20019;-62
2023/06/08 03:13:35;;;;;;;;;;;11.90;99.90;;;;;;5157831;27;20004;-62
2023/06/08 03:16:01;;;;;;;;;;;11.80;99.90;;;;;;5157577;27;19919;-62
2023/06/08 03:18:26;;;;;;;;;;;12.40;99.90;;;;;;5157442;27;20374;-62
2023/06/08 03:20:52;;;;;;;;;;;12.00;99.90;;;;;;5157354;27;19926;-62
2023/06/08 03:23:19;;;;;;;;;;;12.30;99.90;;;;;;5157320;27;20533;-62
2023/06/08 03:25:49;;;;;;;;;;;12.30;99.90;;;;;;5156906;27;19930;-62
2023/06/08 03:28:15;;;;;;;;;;;13.00;99.90;;;;;;5157140;27;19919;-62
2023/06/08 03:30:41;;;;;;;;;;;12.10;99.90;;;;;;5157254;27;20021;-62
2023/06/08 03:33:07;;;;;;;;;;;12.70;99.90;;;;;;5157224;27;20004;-61
2023/06/08 03:35:32;;;;;;;;;;;12.30;99.90;;;;;;5157065;27;19956;-61
2023/06/08 03:37:58;;;;;;;;;;;12.20;99.90;;;;;;5138762;27;19923;-62
2023/06/08 03:40:24;;;;;;;;;;;12.00;99.90;;;;;;5156902;27;19923;-62
2023/06/08 03:42:50;;;;;;;;;;;12.60;99.90;;;;;;5156873;27;20021;-62
2023/06/08 03:45:16;;;;;;;;;;;11.90;99.90;;;;;;5138349;27;20420;-62
2023/06/08 03:47:42;;;;;;;;;;;12.60;99.90;;;;;;5156919;27;19923;-61
2023/06/08 03:50:08;;;;;;;;;;;12.30;99.90;;;;;;5156821;27;19919;-62
2023/06/08 03:52:33;;;;;;;;;;;12.10;99.90;;;;;;5156331;27;20371;-62
2023/06/08 03:54:59;;;;;;;;;;;12.00;99.90;;;;;;5156357;27;19918;-61
2023/06/08 03:57:25;;;;;;;;;;;12.50;99.90;;;;;;5138178;27;19923;-62
2023/06/08 03:59:50;;;;;;;;;;;12.10;99.90;;;;;;5156717;27;20067;-61
2023/06/08 04:02:16;;;;;;;;;;;12.40;99.90;;;;;;5156757;27;19923;-61
2023/06/08 04:04:44;;;;;;;;;;;12.80;99.90;;;;;;5156498;27;19963;-62
2023/06/08 04:07:10;;;;;;;;;;;12.20;99.90;;;;;;5156731;27;20022;-62
2023/06/08 04:09:36;;;;;;;;;;;12.70;99.90;;;;;;5156467;27;19977;-62
2023/06/08 04:12:01;;;;;;;;;;;12.80;99.90;;;;;;5156316;27;20362;-62
2023/06/08 04:14:27;;;;;;;;;;;12.80;99.90;;;;;;5156511;27;19919;-62
2023/06/08 04:16:53;;;;;;;;;;;12.20;99.90;;;;;;5156307;27;20362;-62
2023/06/08 04:19:18;;;;;;;;;;;12.70;99.90;;;;;;5156255;27;19919;-62
2023/06/08 04:21:44;;;;;;;;;;;12.60;99.90;;;;;;5156115;27;19925;-62
2023/06/08 04:24:09;;;;;;;;;;;12.20;99.90;;;;;;5156094;27;19923;-61
2023/06/08 04:26:35;;;;;;;;;;;12.20;99.90;;;;;;5155967;27;19970;-62
2023/06/08 04:29:03;;;;;;;;;;;12.20;99.90;;;;;;5156081;27;20295;-62
2023/06/08 04:31:28;;;;;;;;;;;12.20;99.90;;;;;;5156156;27;19926;-62
2023/06/08 04:33:54;;;;;;;;;;;12.60;99.90;;;;;;5155944;27;20290;-62
2023/06/08 04:36:21;;;;;;;;;;;13.00;99.90;;;;;;5155808;27;19919;-61
2023/06/08 04:38:47;;;;;;;;;;;12.60;99.90;;;;;;5155781;27;19922;-62
2023/06/08 04:41:13;;;;;;;;;;;12.90;99.90;;;;;;5155627;27;20274;-61
2023/06/08 04:43:38;;;;;;;;;;;12.80;99.90;;;;;;5155824;27;20009;-61
2023/06/08 04:46:07;;;;;;;;;;;12.60;99.90;;;;;;5155791;27;20017;-62
2023/06/08 04:48:33;;;;;;;;;;;12.50;99.90;;;;;;5155653;27;19965;-62
2023/06/08 04:51:01;;;;;;;;;;;12.60;99.90;;;;;;5155510;27;19966;-61
2023/06/08 04:53:27;;;;;;;;;;;13.00;99.90;;;;;;5155429;27;19922;-61
2023/06/08 04:55:57;;;;;;;;;;;12.60;99.90;;;;;;5155672;27;20369;-61
2023/06/08 04:58:26;;;;;;;;;;;13.10;99.90;;;;;;5155730;27;19919;-61
2023/06/08 05:00:52;;;;;;;;;;;13.10;99.90;;;;;;5136951;27;19954;-61
2023/06/08 05:03:18;;;;;;;;;;;13.20;99.90;;;;;;5155393;27;19919;-61
2023/06/08 05:05:44;;;;;;;;;;;13.40;99.90;;;;;;5154126;27;19922;-61
2023/06/08 05:08:09;;;;;;;;;;;12.70;99.90;;;;;;5155105;27;19923;-62
2023/06/08 05:10:35;;;;;;;;;;;12.90;99.90;;;;;;5136870;27;19926;-61
2023/06/08 05:13:01;;;;;;;;;;;12.90;99.90;;;;;;5155216;27;20339;-61
2023/06/08 05:15:27;;;;;;;;;;;13.40;99.90;;;;;;5155061;27;19923;-62
2023/06/08 05:17:53;;;;;;;;;;;13.10;99.90;;;;;;5155080;27;19933;-62
2023/06/08 05:20:20;;;;;;;;;;;12.90;99.90;;;;;;5136415;27;20414;-62
2023/06/08 05:22:45;;;;;;;;;;;13.40;99.90;;;;;;5154844;27;20037;-62
2023/06/08 05:25:11;;;;;;;;;;;13.40;99.90;;;;;;5154929;27;20013;-61
2023/06/08 05:27:37;;;;;;;;;;;13.50;99.90;;;;;;5154551;27;19948;-62
2023/06/08 05:30:03;;;;;;;;;;;12.80;99.90;;;;;;5136368;27;19919;-61
2023/06/08 05:32:28;;;;;;;;;;;13.40;99.90;;;;;;5154794;27;20298;-61
2023/06/08 05:34:54;;;;;;;;;;;13.30;99.90;;;;;;5154719;27;19919;-62
2023/06/08 05:37:20;;;;;;;;;;;13.40;99.90;;;;;;5154522;27;19926;-61
2023/06/08 05:39:45;;;;;;;;;;;13.30;99.90;;;;;;5154587;27;19989;-62
2023/06/08 05:42:11;;;;;;;;;;;13.30;99.90;;;;;;5148985;27;20003;-62
2023/06/08 05:44:36;;;;;;;;;;;13.40;99.90;;;;;;5146122;27;19934;-61
2023/06/08 05:47:02;;;;;;;;;;;13.60;99.90;;;;;;5153394;27;20324;-61
2023/06/08 05:49:28;;;;;;;;;;;13.80;99.90;;;;;;5135056;27;19919;-62
2023/06/08 05:51:53;;;;;;;;;;;13.60;99.90;;;;;;5153259;27;19966;-61
2023/06/08 05:54:19;;;;;;;;;;;13.60;99.90;;;;;;5153784;27;19918;-61
2023/06/08 05:56:45;;;;;;;;;;;13.90;99.90;;;;;;5153658;27;19971;-62
2023/06/08 05:59:10;;;;;;;;;;;13.60;99.90;;;;;;5153180;27;19922;-62
2023/06/08 06:01:36;;;;;;;;;;;13.70;99.90;;;;;;5153864;27;19918;-62
2023/06/08 06:04:02;;;;;;;;;;;13.90;99.90;;;;;;5153703;27;19985;-62
2023/06/08 06:06:28;;;;;;;;;;;13.80;99.90;;;;;;5152881;27;19970;-62
2023/06/08 06:08:54;;;;;;;;;;;13.70;99.90;;;;;;5153523;27;20274;-61
2023/06/08 06:11:20;;;;;;;;;;;13.60;99.90;;;;;;5153737;27;19919;-62
2023/06/08 06:13:46;;;;;;;;;;;13.90;99.90;;;;;;5152746;27;19973;-61
2023/06/08 06:16:11;;;;;;;;;;;14.00;99.90;;;;;;5153150;27;19963;-62
2023/06/08 06:18:37;;;;;;;;;;;14.20;99.90;;;;;;5153426;27;19923;-62
2023/06/08 06:21:02;;;;;;;;;;;14.50;99.90;;;;;;5152715;27;20370;-63
2023/06/08 06:23:28;;;;;;;;;;;14.10;99.90;;;;;;5153539;27;19980;-62
2023/06/08 06:25:54;;;;;;;;;;;14.50;99.90;;;;;;5152902;27;19926;-62
2023/06/08 06:28:20;;;;;;;;;;;14.60;99.90;;;;;;5152593;27;19965;-63
2023/06/08 06:30:46;;;;;;;;;;;14.40;99.90;;;;;;5153194;27;20362;-62
2023/06/08 06:33:11;;;;;;;;;;;14.40;99.90;;;;;;5153222;27;20294;-62
2023/06/08 06:35:37;;;;;;;;;;;14.60;99.90;;;;;;5152618;27;19937;-63
2023/06/08 06:38:03;;;;;;;;;;;14.50;99.90;;;;;;5153385;27;19929;-62
2023/06/08 06:40:28;;;;;;;;;;;14.60;99.90;;;;;;5134739;27;19926;-62
2023/06/08 06:42:54;;;;;;;;;;;14.50;99.90;;;;;;5152467;27;20362;-62
2023/06/08 06:45:20;;;;;;;;;;;14.90;99.90;;;;;;5152970;27;19923;-62
2023/06/08 06:47:45;;;;;;;;;;;15.10;99.90;;;;;;5152655;27;19919;-63
2023/06/08 06:50:11;;;;;;;;;;;15.10;99.90;;;;;;5133524;27;19919;-65
2023/06/08 06:52:37;;;;;;;;;;;14.90;99.90;;;;;;5152246;27;19958;-63
2023/06/08 06:55:02;;;;;;;;;;;15.10;99.90;;;;;;5146152;27;19948;-66
2023/06/08 06:57:31;;;;;;;;;;;15.00;99.90;;;;;;5151027;27;20010;-61
2023/06/08 06:59:57;;;;;;;;;;;15.10;99.90;;;;;;5152683;27;20315;-62
2023/06/08 07:02:23;;;;;;;;;;;15.40;99.90;;;;;;5152461;27;20316;-63
2023/06/08 07:04:52;;;;;;;;;;;15.30;99.90;;;;;;5151828;27;19981;-62
2023/06/08 07:07:18;;;;;;;;;;;15.50;99.90;;;;;;5152613;27;19927;-63
2023/06/08 07:09:44;;;;;;;;;;;15.10;99.90;;;;;;5152274;27;20378;-62
2023/06/08 07:12:10;;;;;;;;;;;15.30;99.90;;;;;;5133074;27;19923;-60
2023/06/08 07:14:36;;;;;;;;;;;15.50;99.90;;;;;;5134249;27;19919;-61
2023/06/08 07:17:01;;;;;;;;;;;15.20;99.90;;;;;;5152343;27;20005;-62
2023/06/08 07:19:27;;;;;;;;;;;15.40;99.90;;;;;;5151822;27;19937;-65
2023/06/08 07:21:54;;;;;;;;;;;15.60;99.90;;;;;;5152677;27;19923;-61
2023/06/08 07:24:20;;;;;;;;;;;15.90;99.90;;;;;;5152254;27;19981;-63
2023/06/08 07:26:46;;;;;;;;;;;15.70;99.90;;;;;;5151071;27;19934;-67
2023/06/08 07:29:11;;;;;;;;;;;15.70;99.90;;;;;;5136147;27;20273;-66
2023/06/08 07:31:39;;;;;;;;;;;16.20;99.90;;;;;;5155929;27;19938;-63
2023/06/08 07:34:06;;;;;;;;;;;16.10;99.90;;;;;;5155603;27;20282;-63
2023/06/08 07:36:32;;;;;;;;;;;16.00;99.90;;;;;;5156237;27;19922;-64
2023/06/08 07:38:58;;;;;;;;;;;16.00;99.90;;;;;;5137301;27;19923;-63
2023/06/08 07:41:26;;;;;;;;;;;15.80;99.90;;;;;;5155240;27;19929;-64
2023/06/08 07:43:51;;;;;;;;;;;16.20;99.90;;;;;;5155891;27;20278;-64
2023/06/08 07:46:17;;;;;;;;;;;16.10;99.90;;;;;;5155794;27;19923;-62
2023/06/08 07:48:42;;;;;;;;;;;16.30;99.90;;;;;;5136880;27;19926;-62
2023/06/08 07:51:08;;;;;;;;;;;16.30;99.90;;;;;;5155901;27;19967;-63
2023/06/08 07:53:34;;;;;;;;;;;16.20;99.90;;;;;;5155818;27;19973;-65
2023/06/08 07:56:00;;;;;;;;;;;15.90;99.90;;;;;;5155457;27;19918;-62
2023/06/08 07:58:26;;;;;;;;;;;15.90;99.90;;;;;;5155484;27;20370;-64
2023/06/08 08:00:51;;;;;;;;;;;16.20;99.90;;;;;;5155524;27;19974;-61
2023/06/08 08:03:17;;;;;;;;;;;16.40;99.90;;;;;;5154900;27;19923;-64
2023/06/08 08:05:43;;;;;;;;;;;16.40;99.90;;;;;;5155613;27;19923;-62
2023/06/08 08:08:08;;;;;;;;;;;16.40;99.90;;;;;;5145254;27;20332;-62
2023/06/08 08:10:34;;;;;;;;;;;16.60;99.90;;;;;;5134226;27;19923;-67
2023/06/08 08:12:59;;;;;;;;;;;16.50;99.90;;;;;;5140580;27;19946;-62
2023/06/08 08:15:26;;;;;;;;;;;16.30;99.90;;;;;;5134664;27;19923;-63
2023/06/08 08:17:52;;;;;;;;;;;16.90;99.90;;;;;;5152230;27;20282;-63
2023/06/08 08:20:17;;;;;;;;;;;16.60;99.90;;;;;;5155287;27;19929;-63
2023/06/08 08:22:43;;;;;;;;;;;17.00;99.90;;;;;;5154684;27;19942;-62
2023/06/08 08:25:08;;;;;;;;;;;16.90;99.90;;;;;;5154289;27;19929;-63
2023/06/08 08:27:34;;;;;;;;;;;17.00;99.90;;;;;;5154843;27;20006;-63
2023/06/08 08:30:00;;;;;;;;;;;16.70;99.90;;;;;;5155125;27;20009;-63
2023/06/08 08:32:25;;;;;;;;;;;17.00;99.90;;;;;;5154615;27;19989;-62
2023/06/08 08:34:51;;;;;;;;;;;16.80;99.90;;;;;;5136516;27;19995;-62
2023/06/08 08:37:17;;;;;;;;;;;17.20;99.90;;;;;;5145387;27;20374;-63
2023/06/08 08:39:42;;;;;;;;;;;17.20;99.90;;;;;;5133520;27;19975;-64
2023/06/08 08:42:10;;;;;;;;;;;17.00;99.90;;;;;;5133814;27;19920;-62
2023/06/08 08:44:36;;;;;;;;;;;17.10;99.90;;;;;;5134286;27;20043;-62
2023/06/08 08:47:04;;;;;;;;;;;17.10;99.90;;;;;;5133958;27;20771;-63
2023/06/08 08:49:32;;;;;;;;;;;16.90;99.90;;;;;;5133356;27;20283;-64
2023/06/08 08:52:00;;;;;;;;;;;16.90;99.90;;;;;;5133849;27;19919;-62
2023/06/08 08:54:31;;;;;;;;;;;16.70;99.90;;;;;;5134126;27;20014;-63
2023/06/08 08:56:57;;;;;;;;;;;16.80;99.90;;;;;;5131791;27;19920;-62
2023/06/08 08:59:23;;;;;;;;;;;16.90;99.90;;;;;;5134197;27;19931;-63
2023/06/08 09:01:48;;;;;;;;;;;17.10;99.90;;;;;;5134100;27;19970;-66
2023/06/08 09:04:14;;;;;;;;;;;17.10;99.90;;;;;;5134478;27;19924;-64
2023/06/08 09:06:44;;;;;;;;;;;17.30;99.90;;;;;;5134307;27;19945;-62
2023/06/08 09:09:10;;;;;;;;;;;17.30;99.90;;;;;;5134106;27;20018;-62
2023/06/08 09:11:54;;;;;;;;;;;17.40;99.90;;;;;;5134650;27;20038;-62
2023/06/08 09:14:20;;;;;;;;;;;17.60;99.90;;;;;;5133863;27;19923;-62
2023/06/08 09:16:47;;;;;;;;;;;17.60;99.90;;;;;;5134263;27;19919;-62
2023/06/08 09:19:13;;;;;;;;;;;17.50;99.90;;;;;;5134165;27;19919;-61
2023/06/08 09:21:43;;;;;;;;;;;17.10;99.90;;;;;;5115675;27;19946;-62
2023/06/08 09:24:11;;;;;;;;;;;17.80;99.90;;;;;;5133934;27;19919;-62
2023/06/08 09:26:38;;;;;;;;;;;17.50;99.90;;;;;;5133649;27;19926;-61
2023/06/08 09:29:04;;;;;;;;;;;17.60;99.90;;;;;;5133918;27;19930;-62
2023/06/08 09:31:30;;;;;;;;;;;17.70;99.90;;;;;;5133793;27;20314;-61
2023/06/08 09:34:09;;;;;;;;;;;17.50;99.90;;;;;;5115803;27;19925;-62
2023/06/08 09:36:37;;;;;;;;;;;17.70;99.90;;;;;;5133680;27;19923;-62
2023/06/08 09:39:06;;;;;;;;;;;17.40;99.90;;;;;;5133727;27;19919;-61
2023/06/08 09:41:32;;;;;;;;;;;17.50;99.90;;;;;;5133437;27;19954;-61
2023/06/08 09:43:58;;;;;;;;;;;17.50;99.90;;;;;;5133835;27;20363;-61
2023/06/08 09:46:50;;;;;;;;;;;17.60;99.90;;;;;;5133902;27;19989;-61
2023/06/08 09:49:16;;;;;;;;;;;17.60;99.90;;;;;;5129462;27;19924;-62
2023/06/08 09:51:46;;;;;;;;;;;17.10;99.90;;;;;;5132852;27;20348;-62
2023/06/08 09:54:14;;;;;;;;;;;16.90;99.90;;;;;;5133230;27;19919;-62
2023/06/08 09:56:39;;;;;;;;;;;16.90;99.90;;;;;;5133562;27;19923;-62
2023/06/08 09:59:11;;;;;;;;;;;17.10;99.90;;;;;;5133552;27;20037;-62
2023/06/08 10:01:41;;;;;;;;;;;17.40;99.90;;;;;;5143822;27;19923;-62
2023/06/08 10:04:13;;;;;;;;;;;17.40;99.90;;;;;;5152789;27;19926;-63
2023/06/08 10:06:40;;;;;;;;;;;17.40;99.90;;;;;;5146164;27;20362;-61
2023/06/08 10:09:08;;;;;;;;;;;17.30;99.90;;;;;;5132396;27;19923;-62
2023/06/08 10:11:34;;;;;;;;;;;17.60;99.90;;;;;;5151871;27;20366;-62
2023/06/08 10:13:59;;;;;;;;;;;17.50;99.90;;;;;;5151099;27;19919;-61
2023/06/08 10:16:26;;;;;;;;;;;17.40;99.90;;;;;;5130760;27;20017;-61
2023/06/08 10:18:51;;;;;;;;;;;17.20;99.90;;;;;;5131514;27;19970;-62
2023/06/08 10:21:17;;;;;;;;;;;17.50;99.90;;;;;;5114015;27;19955;-62
2023/06/08 10:23:43;;;;;;;;;;;17.50;99.90;;;;;;5131397;27;19920;-62
2023/06/08 10:26:09;;;;;;;;;;;17.60;99.90;;;;;;5132309;27;19923;-62
2023/06/08 10:28:34;;;;;;;;;;;17.70;99.90;;;;;;5131897;27;19926;-62
2023/06/08 10:31:20;;;;;;;;;;;18.00;99.90;;;;;;5113379;28;19923;-63
2023/06/08 10:33:46;;;;;;;;;;;18.50;99.90;;;;;;5132852;28;19978;-62
2023/06/08 10:36:11;;;;;;;;;;;18.10;99.90;;;;;;5133022;28;19963;-62
2023/06/08 10:38:54;;;;;;;;;;;18.00;99.90;;;;;;5132696;28;19919;-62
2023/06/08 10:41:38;;;;;;;;;;;17.90;99.90;;;;;;5132647;28;20335;-62
2023/06/08 10:44:04;;;;;;;;;;;17.70;99.90;;;;;;5114194;28;19989;-62
2023/06/08 10:46:42;;;;;;;;;;;17.80;99.90;;;;;;5132357;28;19923;-61
2023/06/08 10:49:08;;;;;;;;;;;18.00;99.90;;;;;;5132588;28;19927;-61
2023/06/08 10:51:57;;;;;;;;;;;17.90;99.90;;;;;;5132878;28;19923;-62
2023/06/08 10:54:23;;;;;;;;;;;18.20;99.90;;;;;;5111369;27;20278;-61
2023/06/08 10:56:52;;;;;;;;;;;18.20;99.90;;;;;;5153018;27;20278;-62
2023/06/08 10:59:37;;;;;;;;;;;18.40;99.90;;;;;;5153008;27;19919;-62
2023/06/08 11:02:04;;;;;;;;;;;18.90;99.90;;;;;;5153043;27;20256;-62
2023/06/08 11:04:30;;;;;;;;;;;18.60;99.90;;;;;;5157459;27;19923;-62
2023/06/08 11:07:00;;;;;;;;;;;18.80;99.90;;;;;;5157412;27;19930;-61
2023/06/08 11:09:27;;;;;;;;;;;18.60;99.90;;;;;;5157423;27;19918;-62
2023/06/08 11:11:53;;;;;;;;;;;18.40;99.90;;;;;;5139048;27;19977;-62
2023/06/08 11:14:19;;;;;;;;;;;18.60;99.90;;;;;;5157479;27;20370;-61
2023/06/08 11:16:52;;;;;;;;;;;18.70;99.90;;;;;;5156431;27;20293;-63
2023/06/08 11:19:18;;;;;;;;;;;19.10;99.90;;;;;;5157024;27;19942;-61
2023/06/08 11:21:45;;;;;;;;;;;18.90;99.90;;;;;;5138570;27;20366;-61
2023/06/08 11:24:12;;;;;;;;;;;18.50;99.90;;;;;;5156954;27;19933;-62
2023/06/08 11:26:37;;;;;;;;;;;18.80;99.90;;;;;;5138327;27;20274;-61
2023/06/08 11:29:03;;;;;;;;;;;18.70;99.90;;;;;;5156948;27;19926;-62
2023/06/08 11:31:34;;;;;;;;;;;18.50;99.90;;;;;;5138601;27;19923;-62
2023/06/08 11:33:59;;;;;;;;;;;19.00;99.90;;;;;;5156395;27;19926;-62
2023/06/08 11:36:26;;;;;;;;;;;18.60;99.90;;;;;;5157036;27;20282;-62
2023/06/08 11:38:51;;;;;;;;;;;18.80;99.90;;;;;;5156916;27;19923;-63
2023/06/08 11:41:20;;;;;;;;;;;18.60;99.90;;;;;;5138508;27;19918;-62
2023/06/08 11:43:49;;;;;;;;;;;19.00;99.90;;;;;;5156855;27;19926;-61
2023/06/08 11:46:15;;;;;;;;;;;19.20;99.90;;;;;;5156386;27;19919;-63
2023/06/08 11:48:41;;;;;;;;;;;19.30;99.90;;;;;;5138103;27;19923;-64
2023/06/08 11:51:07;;;;;;;;;;;18.80;99.90;;;;;;5156188;27;19929;-64
2023/06/08 11:53:32;;;;;;;;;;;18.90;99.90;;;;;;5155952;27;19923;-66
2023/06/08 11:55:59;;;;;;;;;;;19.40;99.90;;;;;;5156412;27;19934;-65
2023/06/08 11:58:28;;;;;;;;;;;19.40;99.90;;;;;;5156573;27;20382;-63
2023/06/08 12:01:04;;;;;;;;;;;19.20;99.90;;;;;;5132969;27;19920;-64
2023/06/08 12:03:32;;;;;;;;;;;19.50;99.90;;;;;;5148937;27;20037;-63
2023/06/08 12:05:58;;;;;;;;;;;19.60;99.90;;;;;;5156045;27;19923;-68
2023/06/08 12:08:23;;;;;;;;;;;19.60;99.90;;;;;;5147716;27;19945;-66
2023/06/08 12:10:49;;;;;;;;;;;19.60;99.90;;;;;;5135348;27;19926;-64
2023/06/08 12:13:15;;;;;;;;;;;19.80;99.90;;;;;;5146188;27;19919;-64
2023/06/08 12:15:41;;;;;;;;;;;19.50;99.90;;;;;;5154455;27;19926;-64
2023/06/08 12:18:06;;;;;;;;;;;19.40;99.90;;;;;;5155537;27;19933;-63
2023/06/08 12:20:33;;;;;;;;;;;19.20;99.90;;;;;;5155890;27;20370;-64
2023/06/08 12:22:58;;;;;;;;;;;19.00;99.90;;;;;;5155672;27;20393;-63
2023/06/08 12:25:24;;;;;;;;;;;19.20;99.90;;;;;;5155630;27;19970;-63
2023/06/08 12:27:50;;;;;;;;;;;19.30;99.90;;;;;;5155321;27;19919;-63
2023/06/08 12:30:15;;;;;;;;;;;19.50;99.90;;;;;;5155492;27;19919;-65
2023/06/08 12:32:41;;;;;;;;;;;19.20;99.90;;;;;;5155753;27;19934;-64
2023/06/08 12:35:07;;;;;;;;;;;19.40;99.90;;;;;;5155425;27;19975;-64
2023/06/08 12:37:32;;;;;;;;;;;19.40;99.90;;;;;;5137398;27;19923;-64
2023/06/08 12:39:58;;;;;;;;;;;19.40;99.90;;;;;;5155231;27;19973;-64
2023/06/08 12:42:24;;;;;;;;;;;19.50;99.90;;;;;;5155519;27;19926;-63
2023/06/08 12:44:49;;;;;;;;;;;19.80;99.90;;;;;;5155148;27;19919;-64
2023/06/08 12:47:15;;;;;;;;;;;19.70;99.90;;;;;;5136753;27;20384;-63
2023/06/08 12:49:43;;;;;;;;;;;19.50;99.90;;;;;;5155338;27;20400;-64
2023/06/08 12:52:09;;;;;;;;;;;19.30;99.90;;;;;;5155333;27;19919;-63
2023/06/08 12:54:35;;;;;;;;;;;19.60;99.90;;;;;;5155303;27;20432;-64
2023/06/08 12:57:00;;;;;;;;;;;19.40;99.90;;;;;;5154925;27;19934;-63
2023/06/08 12:59:26;;;;;;;;;;;19.50;99.90;;;;;;5155212;27;19923;-63
2023/06/08 13:01:52;;;;;;;;;;;19.50;99.90;;;;;;5155084;27;19935;-63
2023/06/08 13:04:17;;;;;;;;;;;19.60;99.90;;;;;;5154625;27;19930;-63
2023/06/08 13:06:43;;;;;;;;;;;19.70;99.90;;;;;;5154931;27;19919;-63
2023/06/08 13:09:09;;;;;;;;;;;19.50;99.90;;;;;;5154755;27;20275;-63
2023/06/08 13:11:35;;;;;;;;;;;19.70;99.90;;;;;;5154941;27;19919;-65
2023/06/08 13:14:00;;;;;;;;;;;19.50;99.90;;;;;;5154475;27;20271;-64
2023/06/08 13:16:26;;;;;;;;;;;19.10;99.90;;;;;;5154736;27;19926;-65
2023/06/08 13:18:52;;;;;;;;;;;19.50;99.90;;;;;;5154585;27;20012;-63
2023/06/08 13:21:17;;;;;;;;;;;19.40;99.90;;;;;;5154886;27;19978;-66
2023/06/08 13:23:43;;;;;;;;;;;19.70;99.90;;;;;;5154538;27;20391;-67
2023/06/08 13:26:08;;;;;;;;;;;20.00;99.90;;;;;;5153126;27;19974;-64
2023/06/08 13:28:34;;;;;;;;;;;19.80;99.90;;;;;;5150401;27;20389;-64
2023/06/08 13:30:59;;;;;;;;;;;19.70;99.90;;;;;;5152487;27;19929;-63
2023/06/08 13:33:25;;;;;;;;;;;19.70;99.90;;;;;;5153928;27;19919;-65
2023/06/08 13:35:51;;;;;;;;;;;19.90;99.90;;;;;;5135602;27;19942;-64
2023/06/08 13:38:16;;;;;;;;;;;20.00;99.90;;;;;;5154219;27;19930;-64
2023/06/08 13:40:42;;;;;;;;;;;20.10;99.90;;;;;;5154266;27;19970;-64
2023/06/08 13:43:10;;;;;;;;;;;19.80;99.90;;;;;;5154113;27;20030;-63
2023/06/08 13:45:36;;;;;;;;;;;20.30;99.90;;;;;;5153797;27;19919;-64
2023/06/08 13:48:02;;;;;;;;;;;20.00;99.90;;;;;;5153651;27;20363;-66
2023/06/08 13:50:27;;;;;;;;;;;20.30;99.90;;;;;;5154012;27;19972;-64
2023/06/08 13:52:56;;;;;;;;;;;20.90;99.90;;;;;;5153870;27;19923;-64
2023/06/08 13:55:25;;;;;;;;;;;20.40;99.90;;;;;;5153570;27;19923;-64
2023/06/08 13:57:51;;;;;;;;;;;22.40;99.90;;;;;;5153559;27;20366;-64
2023/06/08 14:00:17;;;;;;;;;;;20.10;99.90;;;;;;5135438;27;19926;-62
2023/06/08 14:02:42;;;;;;;;;;;20.10;99.90;;;;;;5153608;27;20362;-63
2023/06/08 14:05:08;;;;;;;;;;;20.00;99.90;;;;;;5153554;27;19929;-62
2023/06/08 14:07:34;;;;;;;;;;;20.00;99.90;;;;;;5153766;27;19923;-63
2023/06/08 14:10:00;;;;;;;;;;;20.10;99.90;;;;;;5135143;27;19930;-62
2023/06/08 14:12:26;;;;;;;;;;;20.20;99.90;;;;;;5153865;27;19923;-62
2023/06/08 14:14:52;;;;;;;;;;;20.20;99.90;;;;;;5153356;27;20010;-62